createdAt,value
2019-02-26T00:01:40.709Z,5.05
2019-02-26T00:06:47.198Z,5.06
2019-02-26T00:11:49.431Z,4.94
2019-02-26T00:16:52.271Z,4.88
2019-02-26T00:21:55.818Z,4.76
2019-02-26T00:27:01.472Z,4.79
2019-02-26T00:32:04.843Z,4.86
2019-02-26T00:37:08.470Z,4.87
2019-02-26T00:42:12.258Z,4.96
2019-02-26T00:47:15.415Z,4.45
2019-02-26T00:52:18.681Z,3.61
2019-02-26T00:57:21.530Z,4.17
2019-02-26T01:02:24.596Z,4.66
2019-02-26T01:07:28.698Z,4.69
2019-02-26T01:12:35.254Z,4.75
2019-02-26T01:17:39.982Z,4.68
2019-02-26T01:22:45.406Z,4.61
2019-02-26T01:27:50.619Z,4.49
2019-02-26T01:32:53.196Z,4.39
2019-02-26T01:37:58.651Z,4.45
2019-02-26T01:43:03.059Z,4.36
2019-02-26T01:48:07.097Z,3.91
2019-02-26T01:53:12.125Z,4.04
2019-02-26T01:58:16.758Z,3.98
2019-02-26T02:03:20.865Z,3.90
2019-02-26T02:08:25.523Z,4.25
2019-02-26T02:13:30.560Z,4.17
2019-02-26T02:18:33.928Z,3.86
2019-02-26T02:23:37.225Z,3.80
2019-02-26T02:28:40.429Z,3.77
2019-02-26T02:33:44.675Z,3.76
2019-02-26T02:38:47.828Z,3.86
2019-02-26T02:43:50.078Z,3.89
2019-02-26T02:48:53.224Z,3.89
2019-02-26T02:53:57.495Z,3.94
2019-02-26T02:59:03.373Z,4.02
2019-02-26T03:04:06.037Z,4.23
2019-02-26T03:09:15.249Z,4.15
2019-02-26T03:14:18.731Z,4.25
2019-02-26T03:19:22.468Z,4.31
2019-02-26T03:24:26.306Z,4.33
2019-02-26T03:29:30.437Z,4.26
2019-02-26T03:34:33.984Z,4.12
2019-02-26T03:39:36.973Z,3.95
2019-02-26T03:44:40.026Z,4.15
2019-02-26T03:49:42.867Z,4.39
2019-02-26T03:54:48.610Z,4.50
2019-02-26T03:59:51.335Z,4.65
2019-02-26T04:04:57.102Z,4.15
2019-02-26T04:09:59.061Z,4.44
2019-02-26T04:15:02.584Z,4.59
2019-02-26T04:20:06.754Z,4.66
2019-02-26T04:25:27.950Z,4.77
2019-02-26T04:31:08.560Z,4.66
2019-02-26T04:37:10.427Z,4.55
2019-02-26T04:42:41.031Z,4.45
2019-02-26T04:47:46.635Z,4.44
2019-02-26T04:52:50.484Z,4.59
2019-02-26T04:57:55.203Z,4.70
2019-02-26T05:02:58.538Z,4.33
2019-02-26T05:08:04.041Z,4.44
2019-02-26T05:13:09.408Z,4.58
2019-02-26T05:18:11.348Z,4.61
2019-02-26T05:23:14.843Z,4.24
2019-02-26T05:28:17.901Z,4.41
2019-02-26T05:33:21.585Z,4.31
2019-02-26T05:38:29.648Z,4.36
2019-02-26T05:43:33.976Z,4.47
2019-02-26T05:48:37.163Z,4.29
2019-02-26T05:53:42.106Z,4.16
2019-02-26T05:58:47.043Z,3.75
2019-02-26T06:03:51.895Z,3.90
2019-02-26T06:08:57.431Z,3.68
2019-02-26T06:14:05.402Z,3.10
2019-02-26T06:19:10.926Z,3.68
2019-02-26T06:24:13.401Z,3.72
2019-02-26T06:29:20.009Z,3.55
2019-02-26T06:34:21.513Z,3.78
2019-02-26T06:39:26.863Z,3.75
2019-02-26T06:44:30.516Z,3.76
2019-02-26T06:49:34.091Z,3.76
2019-02-26T06:54:37.325Z,4.02
2019-02-26T06:59:42.318Z,3.99
2019-02-26T07:04:45.297Z,4.25
2019-02-26T07:09:49.004Z,3.98
2019-02-26T07:14:53.506Z,3.92
2019-02-26T07:20:00.133Z,4.21
2019-02-26T07:25:03.021Z,4.26
2019-02-26T07:30:06.448Z,4.28
2019-02-26T07:35:11.632Z,4.32
2019-02-26T07:40:15.984Z,4.57
2019-02-26T07:45:21.885Z,4.51
2019-02-26T07:50:24.302Z,4.53
2019-02-26T07:55:27.800Z,4.78
2019-02-26T08:00:32.848Z,4.93
2019-02-26T08:05:37.298Z,4.99
2019-02-26T08:10:42.824Z,5.19
2019-02-26T08:15:45.287Z,5.45
2019-02-26T08:20:48.482Z,5.16
2019-02-26T08:25:52.869Z,5.26
2019-02-26T08:30:57.352Z,5.52
2019-02-26T08:36:00.472Z,5.72
2019-02-26T08:41:03.674Z,6.08
2019-02-26T08:46:07.313Z,6.26
2019-02-26T08:51:14.291Z,6.34
2019-02-26T08:56:18.623Z,6.68
2019-02-26T09:01:21.312Z,6.97
2019-02-26T09:06:24.493Z,7.16
2019-02-26T09:11:28.800Z,7.43
2019-02-26T09:16:32.828Z,7.74
2019-02-26T09:21:36.920Z,7.91
2019-02-26T09:26:41.681Z,8.15
2019-02-26T09:31:44.587Z,8.40
2019-02-26T09:36:50.687Z,8.54
2019-02-26T09:41:52.525Z,8.84
2019-02-26T09:46:58.337Z,9.09
2019-02-26T09:52:02.010Z,9.21
2019-02-26T09:57:06.672Z,9.36
2019-02-26T10:02:09.248Z,9.57
2019-02-26T10:07:14.277Z,9.66
2019-02-26T10:12:18.178Z,9.82
2019-02-26T10:17:21.673Z,10.17
2019-02-26T10:22:26.192Z,10.38
2019-02-26T10:27:33.690Z,10.49
2019-02-26T10:32:34.574Z,10.80
2019-02-26T10:37:43.742Z,10.90
2019-02-26T10:42:47.748Z,11.28
2019-02-26T10:47:53.483Z,11.46
2019-02-26T10:53:01.463Z,11.53
2019-02-26T10:58:06.902Z,11.74
2019-02-26T11:03:09.165Z,12.09
2019-02-26T11:08:13.749Z,12.41
2019-02-26T11:13:20.955Z,12.69
2019-02-26T11:18:24.103Z,12.80
2019-02-26T11:23:31.244Z,13.01
2019-02-26T11:28:32.937Z,13.28
2019-02-26T11:33:37.575Z,13.37
2019-02-26T11:38:42.173Z,13.43
2019-02-26T11:43:46.458Z,13.73
2019-02-26T11:48:50.136Z,14.22
2019-02-26T11:53:54.851Z,14.00
2019-02-26T11:58:57.798Z,14.24
2019-02-26T12:04:04.172Z,14.48
2019-02-26T12:09:10.361Z,15.12
2019-02-26T12:14:13.736Z,15.77
2019-02-26T12:19:16.892Z,15.58
2019-02-26T12:24:19.710Z,15.93
2019-02-26T12:29:23.582Z,16.30
2019-02-26T12:34:28.377Z,16.58
2019-02-26T12:39:31.931Z,17.30
2019-02-26T12:44:37.990Z,17.87
2019-02-26T12:49:42.250Z,17.78
2019-02-26T12:54:45.767Z,17.89
2019-02-26T12:59:49.271Z,17.92
2019-02-26T13:04:53.454Z,18.22
2019-02-26T13:10:02.686Z,18.71
2019-02-26T13:15:04.946Z,18.28
2019-02-26T13:20:11.055Z,18.21
2019-02-26T13:25:17.552Z,18.92
2019-02-26T13:30:22.165Z,19.53
2019-02-26T13:35:25.342Z,19.70
2019-02-26T13:40:28.582Z,19.28
2019-02-26T13:45:32.043Z,19.20
2019-02-26T13:50:34.966Z,19.48
2019-02-26T13:55:37.865Z,19.45
2019-02-26T14:00:40.608Z,19.78
2019-02-26T14:05:45.825Z,20.13
2019-02-26T14:10:49.417Z,19.88
2019-02-26T14:15:52.999Z,20.42
2019-02-26T14:20:55.913Z,20.59
2019-02-26T14:25:58.771Z,20.78
2019-02-26T14:31:01.922Z,20.26
2019-02-26T14:36:04.779Z,19.72
2019-02-26T14:41:06.953Z,19.77
2019-02-26T14:46:09.890Z,19.51
2019-02-26T14:51:13.475Z,19.49
2019-02-26T14:56:18.848Z,19.15
2019-02-26T15:01:22.052Z,18.94
2019-02-26T15:06:25.050Z,18.87
2019-02-26T15:11:27.950Z,18.90
2019-02-26T15:16:30.515Z,17.62
2019-02-26T15:21:33.715Z,17.25
2019-02-26T15:26:37.057Z,16.84
2019-02-26T15:31:39.888Z,16.56
2019-02-26T15:36:43.201Z,15.99
2019-02-26T15:41:50.381Z,15.30
2019-02-26T15:46:53.566Z,15.41
2019-02-26T15:51:56.117Z,15.44
2019-02-26T15:57:00.493Z,14.98
2019-02-26T16:02:03.962Z,15.28
2019-02-26T16:07:07.003Z,15.19
2019-02-26T16:12:10.312Z,15.00
2019-02-26T16:17:13.467Z,14.84
2019-02-26T16:22:17.004Z,14.72
2019-02-26T16:27:19.771Z,14.37
2019-02-26T16:32:24.648Z,13.92
2019-02-26T16:37:27.619Z,13.60
2019-02-26T16:42:31.185Z,13.47
2019-02-26T16:47:34.078Z,13.34
2019-02-26T16:52:37.566Z,13.14
2019-02-26T16:57:41.101Z,12.97
2019-02-26T17:02:44.934Z,12.80
2019-02-26T17:07:48.188Z,12.70
2019-02-26T17:12:54.830Z,12.49
2019-02-26T17:17:57.846Z,12.31
2019-02-26T17:23:00.478Z,12.38
2019-02-26T17:28:05.103Z,12.36
2019-02-26T17:33:11.374Z,12.34
2019-02-26T17:38:15.461Z,12.12
2019-02-26T17:43:18.280Z,11.84
2019-02-26T17:48:21.604Z,11.71
2019-02-26T17:53:27.639Z,11.44
2019-02-26T17:58:29.720Z,11.48
2019-02-26T18:03:33.175Z,11.48
2019-02-26T18:08:36.797Z,11.35
2019-02-26T18:13:40.039Z,11.26
2019-02-26T18:18:43.584Z,11.24
2019-02-26T18:23:47.196Z,11.06
2019-02-26T18:28:50.788Z,11.04
2019-02-26T18:33:54.100Z,10.84
2019-02-26T18:38:57.739Z,10.85
2019-02-26T18:44:09.530Z,10.62
2019-02-26T18:49:12.435Z,9.95
2019-02-26T18:54:17.741Z,9.99
2019-02-26T18:59:22.198Z,9.90
2019-02-26T19:04:25.542Z,9.94
2019-02-26T19:09:28.688Z,10.06
2019-02-26T19:14:32.899Z,9.96
2019-02-26T19:19:39.741Z,9.83
2019-02-26T19:24:42.883Z,9.63
2019-02-26T19:29:47.424Z,9.38
2019-02-26T19:34:52.907Z,9.38
2019-02-26T19:39:56.794Z,9.43
2019-02-26T19:45:02.929Z,9.19
2019-02-26T19:50:11.625Z,8.63
2019-02-26T19:55:18.107Z,8.97
2019-02-26T20:00:25.066Z,9.04
2019-02-26T20:05:32.373Z,9.04
2019-02-26T20:10:39.145Z,8.91
2019-02-26T20:15:45.913Z,8.97
2019-02-26T20:20:51.242Z,8.80
2019-02-26T20:25:56.665Z,8.40
2019-02-26T20:31:03.222Z,8.37
2019-02-26T20:36:09.460Z,8.20
2019-02-26T20:41:13.604Z,8.06
2019-02-26T20:46:18.027Z,8.03
2019-02-26T20:51:26.918Z,7.96
2019-02-26T20:56:31.559Z,7.90
2019-02-26T21:01:35.773Z,7.99
2019-02-26T21:06:39.263Z,7.67
2019-02-26T21:11:43.816Z,7.45
2019-02-26T21:16:47.860Z,7.67
2019-02-26T21:21:50.944Z,7.44
2019-02-26T21:26:54.697Z,7.35
2019-02-26T21:31:58.443Z,7.33
2019-02-26T21:37:01.742Z,7.35
2019-02-26T21:42:05.398Z,7.40
2019-02-26T21:47:08.782Z,7.18
2019-02-26T21:52:12.086Z,7.27
2019-02-26T21:57:15.887Z,7.33
2019-02-26T22:02:19.457Z,7.34
2019-02-26T22:07:23.013Z,7.05
2019-02-26T22:12:25.947Z,6.93
2019-02-26T22:17:29.494Z,7.07
2019-02-26T22:22:32.953Z,6.91
2019-02-26T22:27:36.690Z,6.81
2019-02-26T22:32:40.019Z,6.80
2019-02-26T22:37:44.051Z,6.86
2019-02-26T22:42:47.545Z,6.77
2019-02-26T22:47:50.778Z,6.85
2019-02-26T22:52:54.025Z,6.67
2019-02-26T22:58:02.573Z,6.43
2019-02-26T23:03:03.232Z,6.67
2019-02-26T23:08:09.594Z,6.45
2019-02-26T23:13:12.043Z,6.37
2019-02-26T23:18:16.279Z,6.25
2019-02-26T23:23:21.903Z,6.16
2019-02-26T23:28:25.317Z,5.83
2019-02-26T23:33:28.930Z,5.91
2019-02-26T23:38:32.173Z,5.68
2019-02-26T23:43:34.680Z,5.73
2019-02-26T23:48:40.758Z,5.81
2019-02-26T23:53:43.603Z,5.96
2019-02-26T23:58:46.868Z,5.93
